sensor_id;sensor_type;location;lat;lon;timestamp;P1;durP1;ratioP1;P2;durP2;ratioP2
78406;SDS011;67692;51.074;-1.790;2023-07-31T00:02:11;4.65;;;1.25;;
78406;SDS011;67692;51.074;-1.790;2023-07-31T00:04:38;3.50;;;1.10;;
78406;SDS011;67692;51.074;-1.790;2023-07-31T00:07:05;4.55;;;1.20;;
78406;SDS011;67692;51.074;-1.790;2023-07-31T00:09:31;6.15;;;1.38;;
78406;SDS011;67692;51.074;-1.790;2023-07-31T00:11:58;6.05;;;1.50;;
78406;SDS011;67692;51.074;-1.790;2023-07-31T00:14:27;4.28;;;1.50;;
78406;SDS011;67692;51.074;-1.790;2023-07-31T00:16:53;6.55;;;1.40;;
78406;SDS011;67692;51.074;-1.790;2023-07-31T00:19:20;6.22;;;1.70;;
78406;SDS011;67692;51.074;-1.790;2023-07-31T00:21:46;9.82;;;1.80;;
78406;SDS011;67692;51.074;-1.790;2023-07-31T00:24:13;6.07;;;1.40;;
78406;SDS011;67692;51.074;-1.790;2023-07-31T00:26:39;9.43;;;1.77;;
78406;SDS011;67692;51.074;-1.790;2023-07-31T00:29:06;10.10;;;1.63;;
78406;SDS011;67692;51.074;-1.790;2023-07-31T00:31:34;5.35;;;1.90;;
78406;SDS011;67692;51.074;-1.790;2023-07-31T00:34:01;8.25;;;2.20;;
78406;SDS011;67692;51.074;-1.790;2023-07-31T00:36:27;9.10;;;1.90;;
78406;SDS011;67692;51.074;-1.790;2023-07-31T00:38:54;11.00;;;2.55;;
78406;SDS011;67692;51.074;-1.790;2023-07-31T00:41:20;11.88;;;2.05;;
78406;SDS011;67692;51.074;-1.790;2023-07-31T00:43:47;12.20;;;2.30;;
78406;SDS011;67692;51.074;-1.790;2023-07-31T00:46:14;13.85;;;2.53;;
78406;SDS011;67692;51.074;-1.790;2023-07-31T00:48:43;10.40;;;2.75;;
78406;SDS011;67692;51.074;-1.790;2023-07-31T00:51:10;15.65;;;2.70;;
78406;SDS011;67692;51.074;-1.790;2023-07-31T00:53:36;11.80;;;2.60;;
78406;SDS011;67692;51.074;-1.790;2023-07-31T00:56:03;16.42;;;2.47;;
78406;SDS011;67692;51.074;-1.790;2023-07-31T00:58:30;10.20;;;2.30;;
78406;SDS011;67692;51.074;-1.790;2023-07-31T01:00:57;9.43;;;2.47;;
78406;SDS011;67692;51.074;-1.790;2023-07-31T01:03:24;12.00;;;2.65;;
78406;SDS011;67692;51.074;-1.790;2023-07-31T01:05:54;12.70;;;2.22;;
78406;SDS011;67692;51.074;-1.790;2023-07-31T01:08:30;12.20;;;2.92;;
78406;SDS011;67692;51.074;-1.790;2023-07-31T01:11:05;9.55;;;2.13;;
78406;SDS011;67692;51.074;-1.790;2023-07-31T01:13:36;11.60;;;2.22;;
78406;SDS011;67692;51.074;-1.790;2023-07-31T01:16:03;7.43;;;2.17;;
78406;SDS011;67692;51.074;-1.790;2023-07-31T01:18:29;9.02;;;2.28;;
78406;SDS011;67692;51.074;-1.790;2023-07-31T01:21:02;6.35;;;1.70;;
78406;SDS011;67692;51.074;-1.790;2023-07-31T01:23:56;9.07;;;2.42;;
78406;SDS011;67692;51.074;-1.790;2023-07-31T01:26:36;8.75;;;1.80;;
78406;SDS011;67692;51.074;-1.790;2023-07-31T01:29:07;10.93;;;1.83;;
78406;SDS011;67692;51.074;-1.790;2023-07-31T01:31:38;12.48;;;2.25;;
78406;SDS011;67692;51.074;-1.790;2023-07-31T01:34:07;12.63;;;2.38;;
78406;SDS011;67692;51.074;-1.790;2023-07-31T01:36:36;8.02;;;1.80;;
78406;SDS011;67692;51.074;-1.790;2023-07-31T01:39:02;7.32;;;1.88;;
78406;SDS011;67692;51.074;-1.790;2023-07-31T01:41:29;10.77;;;2.40;;
78406;SDS011;67692;51.074;-1.790;2023-07-31T01:43:57;10.25;;;2.00;;
78406;SDS011;67692;51.074;-1.790;2023-07-31T01:46:24;5.15;;;1.35;;
78406;SDS011;67692;51.074;-1.790;2023-07-31T01:48:51;12.52;;;1.88;;
78406;SDS011;67692;51.074;-1.790;2023-07-31T01:51:17;10.95;;;2.17;;
78406;SDS011;67692;51.074;-1.790;2023-07-31T01:53:44;8.07;;;2.15;;
78406;SDS011;67692;51.074;-1.790;2023-07-31T01:56:10;8.75;;;1.67;;
78406;SDS011;67692;51.074;-1.790;2023-07-31T01:58:37;8.20;;;1.95;;
78406;SDS011;67692;51.074;-1.790;2023-07-31T02:01:05;9.10;;;1.98;;
78406;SDS011;67692;51.074;-1.790;2023-07-31T02:03:32;10.40;;;2.60;;
78406;SDS011;67692;51.074;-1.790;2023-07-31T02:05:58;9.63;;;1.73;;
78406;SDS011;67692;51.074;-1.790;2023-07-31T02:08:25;9.75;;;2.00;;
78406;SDS011;67692;51.074;-1.790;2023-07-31T02:10:51;10.25;;;2.22;;
78406;SDS011;67692;51.074;-1.790;2023-07-31T02:13:18;9.00;;;1.83;;
78406;SDS011;67692;51.074;-1.790;2023-07-31T02:15:45;11.75;;;2.25;;
78406;SDS011;67692;51.074;-1.790;2023-07-31T02:18:13;11.20;;;1.90;;
78406;SDS011;67692;51.074;-1.790;2023-07-31T02:20:39;8.18;;;1.83;;
78406;SDS011;67692;51.074;-1.790;2023-07-31T02:23:06;7.05;;;1.88;;
78406;SDS011;67692;51.074;-1.790;2023-07-31T02:25:33;12.48;;;1.83;;
78406;SDS011;67692;51.074;-1.790;2023-07-31T02:27:59;8.02;;;1.65;;
78406;SDS011;67692;51.074;-1.790;2023-07-31T02:30:26;10.50;;;2.58;;
78406;SDS011;67692;51.074;-1.790;2023-07-31T02:32:53;6.28;;;1.83;;
78406;SDS011;67692;51.074;-1.790;2023-07-31T02:35:21;5.72;;;1.38;;
78406;SDS011;67692;51.074;-1.790;2023-07-31T02:37:48;9.63;;;1.90;;
78406;SDS011;67692;51.074;-1.790;2023-07-31T02:40:15;7.80;;;1.55;;
78406;SDS011;67692;51.074;-1.790;2023-07-31T02:42:41;7.65;;;1.60;;
78406;SDS011;67692;51.074;-1.790;2023-07-31T02:45:08;6.72;;;1.42;;
78406;SDS011;67692;51.074;-1.790;2023-07-31T02:47:35;6.22;;;1.42;;
78406;SDS011;67692;51.074;-1.790;2023-07-31T02:50:01;4.82;;;1.20;;
78406;SDS011;67692;51.074;-1.790;2023-07-31T02:52:29;8.25;;;1.42;;
78406;SDS011;67692;51.074;-1.790;2023-07-31T02:54:56;4.95;;;1.13;;
78406;SDS011;67692;51.074;-1.790;2023-07-31T02:57:23;5.78;;;1.77;;
78406;SDS011;67692;51.074;-1.790;2023-07-31T02:59:50;5.10;;;1.27;;
78406;SDS011;67692;51.074;-1.790;2023-07-31T03:02:16;10.00;;;2.20;;
78406;SDS011;67692;51.074;-1.790;2023-07-31T03:04:43;11.73;;;1.77;;
78406;SDS011;67692;51.074;-1.790;2023-07-31T03:07:10;5.80;;;1.27;;
78406;SDS011;67692;51.074;-1.790;2023-07-31T03:09:37;7.03;;;1.45;;
78406;SDS011;67692;51.074;-1.790;2023-07-31T03:12:04;7.15;;;1.48;;
78406;SDS011;67692;51.074;-1.790;2023-07-31T03:14:31;6.43;;;1.38;;
78406;SDS011;67692;51.074;-1.790;2023-07-31T03:16:58;5.88;;;1.55;;
78406;SDS011;67692;51.074;-1.790;2023-07-31T03:19:25;5.57;;;1.30;;
78406;SDS011;67692;51.074;-1.790;2023-07-31T03:21:52;5.22;;;1.50;;
78406;SDS011;67692;51.074;-1.790;2023-07-31T03:24:18;7.07;;;1.30;;
78406;SDS011;67692;51.074;-1.790;2023-07-31T03:26:46;14.23;;;1.73;;
78406;SDS011;67692;51.074;-1.790;2023-07-31T03:29:13;6.70;;;1.40;;
78406;SDS011;67692;51.074;-1.790;2023-07-31T03:31:39;6.13;;;1.63;;
78406;SDS011;67692;51.074;-1.790;2023-07-31T03:34:06;7.03;;;1.50;;
78406;SDS011;67692;51.074;-1.790;2023-07-31T03:36:33;9.93;;;1.90;;
78406;SDS011;67692;51.074;-1.790;2023-07-31T03:38:59;6.72;;;1.52;;
78406;SDS011;67692;51.074;-1.790;2023-07-31T03:41:26;9.00;;;1.52;;
78406;SDS011;67692;51.074;-1.790;2023-07-31T03:43:54;5.38;;;1.23;;
78406;SDS011;67692;51.074;-1.790;2023-07-31T03:46:21;6.55;;;1.58;;
78406;SDS011;67692;51.074;-1.790;2023-07-31T03:48:48;5.82;;;1.33;;
78406;SDS011;67692;51.074;-1.790;2023-07-31T03:51:14;6.88;;;1.60;;
78406;SDS011;67692;51.074;-1.790;2023-07-31T03:53:41;5.97;;;1.60;;
78406;SDS011;67692;51.074;-1.790;2023-07-31T03:56:08;6.30;;;1.63;;
78406;SDS011;67692;51.074;-1.790;2023-07-31T03:58:34;8.85;;;1.45;;
78406;SDS011;67692;51.074;-1.790;2023-07-31T04:01:03;10.05;;;1.65;;
78406;SDS011;67692;51.074;-1.790;2023-07-31T04:03:30;6.82;;;1.55;;
78406;SDS011;67692;51.074;-1.790;2023-07-31T04:05:56;6.15;;;1.60;;
78406;SDS011;67692;51.074;-1.790;2023-07-31T04:08:23;6.32;;;1.73;;
78406;SDS011;67692;51.074;-1.790;2023-07-31T04:10:50;10.10;;;1.70;;
78406;SDS011;67692;51.074;-1.790;2023-07-31T04:13:17;9.77;;;2.00;;
78406;SDS011;67692;51.074;-1.790;2023-07-31T04:15:47;10.82;;;1.85;;
78406;SDS011;67692;51.074;-1.790;2023-07-31T04:18:15;6.82;;;1.90;;
78406;SDS011;67692;51.074;-1.790;2023-07-31T04:20:42;9.13;;;2.17;;
78406;SDS011;67692;51.074;-1.790;2023-07-31T04:23:09;9.02;;;1.60;;
78406;SDS011;67692;51.074;-1.790;2023-07-31T04:25:35;5.00;;;1.90;;
78406;SDS011;67692;51.074;-1.790;2023-07-31T04:28:02;6.10;;;1.48;;
78406;SDS011;67692;51.074;-1.790;2023-07-31T04:30:29;10.35;;;1.77;;
78406;SDS011;67692;51.074;-1.790;2023-07-31T04:32:55;7.00;;;1.65;;
78406;SDS011;67692;51.074;-1.790;2023-07-31T04:35:23;7.82;;;1.60;;
78406;SDS011;67692;51.074;-1.790;2023-07-31T04:37:50;6.07;;;1.45;;
78406;SDS011;67692;51.074;-1.790;2023-07-31T04:40:17;13.02;;;2.25;;
78406;SDS011;67692;51.074;-1.790;2023-07-31T04:42:43;12.90;;;1.70;;
78406;SDS011;67692;51.074;-1.790;2023-07-31T04:45:10;7.55;;;1.20;;
78406;SDS011;67692;51.074;-1.790;2023-07-31T04:47:36;7.32;;;1.42;;
78406;SDS011;67692;51.074;-1.790;2023-07-31T04:50:03;8.65;;;1.30;;
78406;SDS011;67692;51.074;-1.790;2023-07-31T04:52:31;8.23;;;1.52;;
78406;SDS011;67692;51.074;-1.790;2023-07-31T04:54:58;7.10;;;1.60;;
78406;SDS011;67692;51.074;-1.790;2023-07-31T04:57:25;7.20;;;1.60;;
78406;SDS011;67692;51.074;-1.790;2023-07-31T04:59:51;4.82;;;1.65;;
78406;SDS011;67692;51.074;-1.790;2023-07-31T05:02:18;3.33;;;1.10;;
78406;SDS011;67692;51.074;-1.790;2023-07-31T05:04:45;7.00;;;1.30;;
78406;SDS011;67692;51.074;-1.790;2023-07-31T05:07:11;10.02;;;1.40;;
78406;SDS011;67692;51.074;-1.790;2023-07-31T05:09:39;6.55;;;1.33;;
78406;SDS011;67692;51.074;-1.790;2023-07-31T05:12:06;7.55;;;1.20;;
78406;SDS011;67692;51.074;-1.790;2023-07-31T05:14:34;3.40;;;1.10;;
78406;SDS011;67692;51.074;-1.790;2023-07-31T05:17:00;11.70;;;1.52;;
78406;SDS011;67692;51.074;-1.790;2023-07-31T05:19:27;6.78;;;1.30;;
78406;SDS011;67692;51.074;-1.790;2023-07-31T05:21:53;4.55;;;1.17;;
78406;SDS011;67692;51.074;-1.790;2023-07-31T05:24:20;6.45;;;1.02;;
78406;SDS011;67692;51.074;-1.790;2023-07-31T05:26:48;9.23;;;1.20;;
78406;SDS011;67692;51.074;-1.790;2023-07-31T05:29:14;6.88;;;1.35;;
78406;SDS011;67692;51.074;-1.790;2023-07-31T05:31:41;7.18;;;1.55;;
78406;SDS011;67692;51.074;-1.790;2023-07-31T05:34:08;7.28;;;1.52;;
78406;SDS011;67692;51.074;-1.790;2023-07-31T05:36:34;6.20;;;1.10;;
78406;SDS011;67692;51.074;-1.790;2023-07-31T05:39:01;6.38;;;1.67;;
78406;SDS011;67692;51.074;-1.790;2023-07-31T05:43:59;8.40;;;1.52;;
78406;SDS011;67692;51.074;-1.790;2023-07-31T05:46:25;3.67;;;1.10;;
78406;SDS011;67692;51.074;-1.790;2023-07-31T05:48:52;7.57;;;1.70;;
78406;SDS011;67692;51.074;-1.790;2023-07-31T05:51:18;6.97;;;1.40;;
78406;SDS011;67692;51.074;-1.790;2023-07-31T05:53:45;8.55;;;1.77;;
78406;SDS011;67692;51.074;-1.790;2023-07-31T05:56:12;11.05;;;1.25;;
78406;SDS011;67692;51.074;-1.790;2023-07-31T05:58:38;6.90;;;1.48;;
78406;SDS011;67692;51.074;-1.790;2023-07-31T06:01:06;7.35;;;1.17;;
78406;SDS011;67692;51.074;-1.790;2023-07-31T06:03:33;7.10;;;1.50;;
78406;SDS011;67692;51.074;-1.790;2023-07-31T06:05:59;6.63;;;1.10;;
78406;SDS011;67692;51.074;-1.790;2023-07-31T06:08:26;6.18;;;1.10;;
78406;SDS011;67692;51.074;-1.790;2023-07-31T06:10:52;4.53;;;1.00;;
78406;SDS011;67692;51.074;-1.790;2023-07-31T06:13:19;3.65;;;0.80;;
78406;SDS011;67692;51.074;-1.790;2023-07-31T06:15:46;4.68;;;1.27;;
78406;SDS011;67692;51.074;-1.790;2023-07-31T06:18:14;4.93;;;1.20;;
78406;SDS011;67692;51.074;-1.790;2023-07-31T06:20:41;5.03;;;1.30;;
78406;SDS011;67692;51.074;-1.790;2023-07-31T06:23:07;5.63;;;1.15;;
78406;SDS011;67692;51.074;-1.790;2023-07-31T06:25:34;3.03;;;0.90;;
78406;SDS011;67692;51.074;-1.790;2023-07-31T06:28:00;5.25;;;1.25;;
78406;SDS011;67692;51.074;-1.790;2023-07-31T06:30:27;4.30;;;1.13;;
78406;SDS011;67692;51.074;-1.790;2023-07-31T06:32:53;5.35;;;1.33;;
78406;SDS011;67692;51.074;-1.790;2023-07-31T06:35:21;13.68;;;1.60;;
78406;SDS011;67692;51.074;-1.790;2023-07-31T06:37:48;7.72;;;1.40;;
78406;SDS011;67692;51.074;-1.790;2023-07-31T06:40:16;5.65;;;1.38;;
78406;SDS011;67692;51.074;-1.790;2023-07-31T06:42:43;8.77;;;1.45;;
78406;SDS011;67692;51.074;-1.790;2023-07-31T06:45:10;6.30;;;1.23;;
78406;SDS011;67692;51.074;-1.790;2023-07-31T06:47:36;4.97;;;1.30;;
78406;SDS011;67692;51.074;-1.790;2023-07-31T06:50:03;4.50;;;1.08;;
78406;SDS011;67692;51.074;-1.790;2023-07-31T06:52:31;5.93;;;1.38;;
78406;SDS011;67692;51.074;-1.790;2023-07-31T06:55:01;5.00;;;1.45;;
78406;SDS011;67692;51.074;-1.790;2023-07-31T06:57:29;2.58;;;0.77;;
78406;SDS011;67692;51.074;-1.790;2023-07-31T06:59:56;5.63;;;1.30;;
78406;SDS011;67692;51.074;-1.790;2023-07-31T07:02:23;7.63;;;1.88;;
78406;SDS011;67692;51.074;-1.790;2023-07-31T07:04:49;7.25;;;1.20;;
78406;SDS011;67692;51.074;-1.790;2023-07-31T07:07:16;5.05;;;1.58;;
78406;SDS011;67692;51.074;-1.790;2023-07-31T07:09:45;5.00;;;1.27;;
78406;SDS011;67692;51.074;-1.790;2023-07-31T07:12:12;5.00;;;1.00;;
78406;SDS011;67692;51.074;-1.790;2023-07-31T07:14:38;5.20;;;1.85;;
78406;SDS011;67692;51.074;-1.790;2023-07-31T07:17:05;4.05;;;0.85;;
78406;SDS011;67692;51.074;-1.790;2023-07-31T07:19:32;3.50;;;0.95;;
78406;SDS011;67692;51.074;-1.790;2023-07-31T07:21:58;3.50;;;0.88;;
78406;SDS011;67692;51.074;-1.790;2023-07-31T07:24:27;2.80;;;0.68;;
78406;SDS011;67692;51.074;-1.790;2023-07-31T07:26:55;3.80;;;0.70;;
78406;SDS011;67692;51.074;-1.790;2023-07-31T07:29:21;2.15;;;0.80;;
78406;SDS011;67692;51.074;-1.790;2023-07-31T07:31:48;3.35;;;0.60;;
78406;SDS011;67692;51.074;-1.790;2023-07-31T07:34:15;4.25;;;1.23;;
78406;SDS011;67692;51.074;-1.790;2023-07-31T07:36:41;5.47;;;0.63;;
78406;SDS011;67692;51.074;-1.790;2023-07-31T07:39:08;4.70;;;0.80;;
78406;SDS011;67692;51.074;-1.790;2023-07-31T07:41:36;7.07;;;0.70;;
78406;SDS011;67692;51.074;-1.790;2023-07-31T07:44:04;1.65;;;0.70;;
78406;SDS011;67692;51.074;-1.790;2023-07-31T07:46:30;3.65;;;0.75;;
78406;SDS011;67692;51.074;-1.790;2023-07-31T07:48:57;2.03;;;0.65;;
78406;SDS011;67692;51.074;-1.790;2023-07-31T07:51:24;3.60;;;1.00;;
78406;SDS011;67692;51.074;-1.790;2023-07-31T07:53:50;3.70;;;0.70;;
78406;SDS011;67692;51.074;-1.790;2023-07-31T07:56:17;3.03;;;0.85;;
78406;SDS011;67692;51.074;-1.790;2023-07-31T07:58:44;1.27;;;0.50;;
78406;SDS011;67692;51.074;-1.790;2023-07-31T08:01:12;3.20;;;0.73;;
78406;SDS011;67692;51.074;-1.790;2023-07-31T08:03:38;2.70;;;0.75;;
78406;SDS011;67692;51.074;-1.790;2023-07-31T08:06:05;1.48;;;0.40;;
78406;SDS011;67692;51.074;-1.790;2023-07-31T08:08:34;2.20;;;0.70;;
78406;SDS011;67692;51.074;-1.790;2023-07-31T08:11:00;2.55;;;0.65;;
78406;SDS011;67692;51.074;-1.790;2023-07-31T08:13:27;3.08;;;0.80;;
78406;SDS011;67692;51.074;-1.790;2023-07-31T08:15:54;3.83;;;0.73;;
78406;SDS011;67692;51.074;-1.790;2023-07-31T08:18:22;1.83;;;0.70;;
78406;SDS011;67692;51.074;-1.790;2023-07-31T08:20:49;2.78;;;0.82;;
78406;SDS011;67692;51.074;-1.790;2023-07-31T08:23:16;1.75;;;0.60;;
78406;SDS011;67692;51.074;-1.790;2023-07-31T08:25:42;1.58;;;0.52;;
78406;SDS011;67692;51.074;-1.790;2023-07-31T08:28:09;4.35;;;0.88;;
78406;SDS011;67692;51.074;-1.790;2023-07-31T08:30:35;3.55;;;0.98;;
78406;SDS011;67692;51.074;-1.790;2023-07-31T08:33:02;2.90;;;0.70;;
78406;SDS011;67692;51.074;-1.790;2023-07-31T08:35:30;3.38;;;1.10;;
78406;SDS011;67692;51.074;-1.790;2023-07-31T08:37:57;4.50;;;1.23;;
78406;SDS011;67692;51.074;-1.790;2023-07-31T08:40:23;3.85;;;1.00;;
78406;SDS011;67692;51.074;-1.790;2023-07-31T08:42:54;2.90;;;0.70;;
78406;SDS011;67692;51.074;-1.790;2023-07-31T08:45:27;3.88;;;0.95;;
78406;SDS011;67692;51.074;-1.790;2023-07-31T08:47:54;3.30;;;1.00;;
78406;SDS011;67692;51.074;-1.790;2023-07-31T08:50:22;4.78;;;1.15;;
78406;SDS011;67692;51.074;-1.790;2023-07-31T08:52:50;6.03;;;1.63;;
78406;SDS011;67692;51.074;-1.790;2023-07-31T08:55:18;5.63;;;1.67;;
78406;SDS011;67692;51.074;-1.790;2023-07-31T08:57:48;3.60;;;1.23;;
78406;SDS011;67692;51.074;-1.790;2023-07-31T09:00:17;4.28;;;1.60;;
78406;SDS011;67692;51.074;-1.790;2023-07-31T09:02:45;4.30;;;1.30;;
78406;SDS011;67692;51.074;-1.790;2023-07-31T09:05:14;4.80;;;1.42;;
78406;SDS011;67692;51.074;-1.790;2023-07-31T09:07:43;5.55;;;1.20;;
78406;SDS011;67692;51.074;-1.790;2023-07-31T09:10:13;5.90;;;1.80;;
78406;SDS011;67692;51.074;-1.790;2023-07-31T09:12:40;4.95;;;1.50;;
78406;SDS011;67692;51.074;-1.790;2023-07-31T09:15:07;4.80;;;1.63;;
78406;SDS011;67692;51.074;-1.790;2023-07-31T09:17:35;6.28;;;2.03;;
78406;SDS011;67692;51.074;-1.790;2023-07-31T09:20:15;6.03;;;1.33;;
78406;SDS011;67692;51.074;-1.790;2023-07-31T09:22:43;5.50;;;1.50;;
78406;SDS011;67692;51.074;-1.790;2023-07-31T09:25:18;8.30;;;1.75;;
78406;SDS011;67692;51.074;-1.790;2023-07-31T09:27:47;4.07;;;1.15;;
78406;SDS011;67692;51.074;-1.790;2023-07-31T09:30:14;7.35;;;1.80;;
78406;SDS011;67692;51.074;-1.790;2023-07-31T09:32:42;5.22;;;1.48;;
78406;SDS011;67692;51.074;-1.790;2023-07-31T09:37:55;4.15;;;1.60;;
78406;SDS011;67692;51.074;-1.790;2023-07-31T09:40:26;4.65;;;1.33;;
78406;SDS011;67692;51.074;-1.790;2023-07-31T09:42:54;5.82;;;1.50;;
78406;SDS011;67692;51.074;-1.790;2023-07-31T09:45:22;6.43;;;2.03;;
78406;SDS011;67692;51.074;-1.790;2023-07-31T09:47:49;6.75;;;1.42;;
78406;SDS011;67692;51.074;-1.790;2023-07-31T09:50:16;10.35;;;1.40;;
78406;SDS011;67692;51.074;-1.790;2023-07-31T09:52:43;4.63;;;1.52;;
78406;SDS011;67692;51.074;-1.790;2023-07-31T09:55:10;5.57;;;1.23;;
78406;SDS011;67692;51.074;-1.790;2023-07-31T09:57:39;4.00;;;1.20;;
78406;SDS011;67692;51.074;-1.790;2023-07-31T10:00:07;4.18;;;1.25;;
78406;SDS011;67692;51.074;-1.790;2023-07-31T10:02:35;3.42;;;1.33;;
78406;SDS011;67692;51.074;-1.790;2023-07-31T10:05:03;3.65;;;1.00;;
78406;SDS011;67692;51.074;-1.790;2023-07-31T10:07:31;7.32;;;1.30;;
78406;SDS011;67692;51.074;-1.790;2023-07-31T10:10:02;3.22;;;1.10;;
78406;SDS011;67692;51.074;-1.790;2023-07-31T10:12:31;6.80;;;1.73;;
78406;SDS011;67692;51.074;-1.790;2023-07-31T10:15:01;6.32;;;1.42;;
78406;SDS011;67692;51.074;-1.790;2023-07-31T10:17:28;5.30;;;1.20;;
78406;SDS011;67692;51.074;-1.790;2023-07-31T10:19:56;4.90;;;1.60;;
78406;SDS011;67692;51.074;-1.790;2023-07-31T10:22:24;4.07;;;1.27;;
78406;SDS011;67692;51.074;-1.790;2023-07-31T10:24:51;5.97;;;1.30;;
78406;SDS011;67692;51.074;-1.790;2023-07-31T10:27:20;5.30;;;1.48;;
78406;SDS011;67692;51.074;-1.790;2023-07-31T10:29:47;3.58;;;1.20;;
78406;SDS011;67692;51.074;-1.790;2023-07-31T10:32:16;4.65;;;1.40;;
78406;SDS011;67692;51.074;-1.790;2023-07-31T10:34:43;6.13;;;1.90;;
78406;SDS011;67692;51.074;-1.790;2023-07-31T10:37:19;12.35;;;2.05;;
78406;SDS011;67692;51.074;-1.790;2023-07-31T10:39:54;8.13;;;1.60;;
78406;SDS011;67692;51.074;-1.790;2023-07-31T10:42:32;6.57;;;1.70;;
78406;SDS011;67692;51.074;-1.790;2023-07-31T10:45:01;4.60;;;1.60;;
78406;SDS011;67692;51.074;-1.790;2023-07-31T10:47:30;4.88;;;1.50;;
78406;SDS011;67692;51.074;-1.790;2023-07-31T10:50:12;6.78;;;1.70;;
78406;SDS011;67692;51.074;-1.790;2023-07-31T10:52:43;6.40;;;1.67;;
78406;SDS011;67692;51.074;-1.790;2023-07-31T10:55:15;7.68;;;1.80;;
78406;SDS011;67692;51.074;-1.790;2023-07-31T10:57:50;7.70;;;1.52;;
78406;SDS011;67692;51.074;-1.790;2023-07-31T11:00:20;6.85;;;1.77;;
78406;SDS011;67692;51.074;-1.790;2023-07-31T11:03:03;5.97;;;1.80;;
78406;SDS011;67692;51.074;-1.790;2023-07-31T11:05:44;11.70;;;2.50;;
78406;SDS011;67692;51.074;-1.790;2023-07-31T11:08:14;7.85;;;1.98;;
78406;SDS011;67692;51.074;-1.790;2023-07-31T11:10:41;9.18;;;2.45;;
78406;SDS011;67692;51.074;-1.790;2023-07-31T11:13:09;7.30;;;2.10;;
78406;SDS011;67692;51.074;-1.790;2023-07-31T11:15:35;11.85;;;1.90;;
78406;SDS011;67692;51.074;-1.790;2023-07-31T11:18:03;12.45;;;2.42;;
78406;SDS011;67692;51.074;-1.790;2023-07-31T11:20:33;13.65;;;2.55;;
78406;SDS011;67692;51.074;-1.790;2023-07-31T11:23:00;15.50;;;2.97;;
78406;SDS011;67692;51.074;-1.790;2023-07-31T11:25:28;14.98;;;2.85;;
78406;SDS011;67692;51.074;-1.790;2023-07-31T11:27:56;6.45;;;2.13;;
78406;SDS011;67692;51.074;-1.790;2023-07-31T11:30:23;9.40;;;2.63;;
78406;SDS011;67692;51.074;-1.790;2023-07-31T11:32:50;14.10;;;2.85;;
78406;SDS011;67692;51.074;-1.790;2023-07-31T11:35:18;16.33;;;2.85;;
78406;SDS011;67692;51.074;-1.790;2023-07-31T11:37:45;14.60;;;2.58;;
78406;SDS011;67692;51.074;-1.790;2023-07-31T11:40:12;8.88;;;2.15;;
78406;SDS011;67692;51.074;-1.790;2023-07-31T11:42:38;12.95;;;2.20;;
78406;SDS011;67692;51.074;-1.790;2023-07-31T11:45:06;15.40;;;3.03;;
78406;SDS011;67692;51.074;-1.790;2023-07-31T11:47:33;9.50;;;2.53;;
78406;SDS011;67692;51.074;-1.790;2023-07-31T11:50:01;9.30;;;2.60;;
78406;SDS011;67692;51.074;-1.790;2023-07-31T11:52:31;8.98;;;2.70;;
78406;SDS011;67692;51.074;-1.790;2023-07-31T11:55:00;8.13;;;2.30;;
78406;SDS011;67692;51.074;-1.790;2023-07-31T11:57:27;11.68;;;2.80;;
78406;SDS011;67692;51.074;-1.790;2023-07-31T11:59:54;11.52;;;2.97;;
78406;SDS011;67692;51.074;-1.790;2023-07-31T12:02:21;9.57;;;2.92;;
78406;SDS011;67692;51.074;-1.790;2023-07-31T12:04:48;9.93;;;2.78;;
78406;SDS011;67692;51.074;-1.790;2023-07-31T12:07:16;8.60;;;2.45;;
78406;SDS011;67692;51.074;-1.790;2023-07-31T12:09:51;10.38;;;3.00;;
78406;SDS011;67692;51.074;-1.790;2023-07-31T12:12:22;9.32;;;2.90;;
78406;SDS011;67692;51.074;-1.790;2023-07-31T12:14:50;10.13;;;3.00;;
78406;SDS011;67692;51.074;-1.790;2023-07-31T12:17:17;11.68;;;3.03;;
78406;SDS011;67692;51.074;-1.790;2023-07-31T12:19:45;10.45;;;2.65;;
78406;SDS011;67692;51.074;-1.790;2023-07-31T12:22:15;10.88;;;2.92;;
78406;SDS011;67692;51.074;-1.790;2023-07-31T12:24:43;13.35;;;3.90;;
78406;SDS011;67692;51.074;-1.790;2023-07-31T12:27:12;11.70;;;2.85;;
78406;SDS011;67692;51.074;-1.790;2023-07-31T12:32:21;10.43;;;2.90;;
78406;SDS011;67692;51.074;-1.790;2023-07-31T12:34:49;12.50;;;3.13;;
78406;SDS011;67692;51.074;-1.790;2023-07-31T12:37:15;9.48;;;2.80;;
78406;SDS011;67692;51.074;-1.790;2023-07-31T12:39:42;12.85;;;3.47;;
78406;SDS011;67692;51.074;-1.790;2023-07-31T12:42:09;8.50;;;2.63;;
78406;SDS011;67692;51.074;-1.790;2023-07-31T12:44:37;10.98;;;2.72;;
78406;SDS011;67692;51.074;-1.790;2023-07-31T12:47:04;10.25;;;3.45;;
78406;SDS011;67692;51.074;-1.790;2023-07-31T12:49:31;11.88;;;3.15;;
78406;SDS011;67692;51.074;-1.790;2023-07-31T12:51:58;11.75;;;2.92;;
78406;SDS011;67692;51.074;-1.790;2023-07-31T12:54:25;11.73;;;3.50;;
78406;SDS011;67692;51.074;-1.790;2023-07-31T12:56:51;11.18;;;3.08;;
78406;SDS011;67692;51.074;-1.790;2023-07-31T12:59:18;10.55;;;3.05;;
78406;SDS011;67692;51.074;-1.790;2023-07-31T13:01:46;12.18;;;3.22;;
78406;SDS011;67692;51.074;-1.790;2023-07-31T13:04:12;12.27;;;3.08;;
78406;SDS011;67692;51.074;-1.790;2023-07-31T13:06:39;11.85;;;3.65;;
78406;SDS011;67692;51.074;-1.790;2023-07-31T13:09:06;9.18;;;3.40;;
78406;SDS011;67692;51.074;-1.790;2023-07-31T13:11:34;13.95;;;3.08;;
78406;SDS011;67692;51.074;-1.790;2023-07-31T13:14:00;12.55;;;2.97;;
78406;SDS011;67692;51.074;-1.790;2023-07-31T13:16:27;12.40;;;3.15;;
78406;SDS011;67692;51.074;-1.790;2023-07-31T13:18:55;10.02;;;3.13;;
78406;SDS011;67692;51.074;-1.790;2023-07-31T13:21:22;9.70;;;2.95;;
78406;SDS011;67692;51.074;-1.790;2023-07-31T13:23:48;13.00;;;3.25;;
78406;SDS011;67692;51.074;-1.790;2023-07-31T13:26:15;14.18;;;3.20;;
78406;SDS011;67692;51.074;-1.790;2023-07-31T13:28:41;14.25;;;2.90;;
78406;SDS011;67692;51.074;-1.790;2023-07-31T13:31:08;14.25;;;3.05;;
78406;SDS011;67692;51.074;-1.790;2023-07-31T13:33:36;9.30;;;2.90;;
78406;SDS011;67692;51.074;-1.790;2023-07-31T13:36:04;8.05;;;2.80;;
78406;SDS011;67692;51.074;-1.790;2023-07-31T13:38:31;11.23;;;2.78;;
78406;SDS011;67692;51.074;-1.790;2023-07-31T13:40:57;10.90;;;2.92;;
78406;SDS011;67692;51.074;-1.790;2023-07-31T13:43:24;13.68;;;3.92;;
78406;SDS011;67692;51.074;-1.790;2023-07-31T13:45:51;14.13;;;3.38;;
78406;SDS011;67692;51.074;-1.790;2023-07-31T13:48:17;9.48;;;2.83;;
78406;SDS011;67692;51.074;-1.790;2023-07-31T13:50:44;12.50;;;3.55;;
78406;SDS011;67692;51.074;-1.790;2023-07-31T13:53:12;9.82;;;3.10;;
78406;SDS011;67692;51.074;-1.790;2023-07-31T13:55:38;11.63;;;3.13;;
78406;SDS011;67692;51.074;-1.790;2023-07-31T13:58:05;10.18;;;2.80;;
78406;SDS011;67692;51.074;-1.790;2023-07-31T14:00:32;8.43;;;3.15;;
78406;SDS011;67692;51.074;-1.790;2023-07-31T14:03:00;10.50;;;3.05;;
78406;SDS011;67692;51.074;-1.790;2023-07-31T14:05:26;12.60;;;2.80;;
78406;SDS011;67692;51.074;-1.790;2023-07-31T14:07:53;9.65;;;3.08;;
78406;SDS011;67692;51.074;-1.790;2023-07-31T14:10:21;12.27;;;3.30;;
78406;SDS011;67692;51.074;-1.790;2023-07-31T14:12:48;10.75;;;2.53;;
78406;SDS011;67692;51.074;-1.790;2023-07-31T14:15:14;7.53;;;2.55;;
78406;SDS011;67692;51.074;-1.790;2023-07-31T14:17:41;9.35;;;3.00;;
78406;SDS011;67692;51.074;-1.790;2023-07-31T14:20:08;10.50;;;3.42;;
78406;SDS011;67692;51.074;-1.790;2023-07-31T14:22:35;10.50;;;3.28;;
78406;SDS011;67692;51.074;-1.790;2023-07-31T14:25:03;9.07;;;2.70;;
78406;SDS011;67692;51.074;-1.790;2023-07-31T14:27:32;11.25;;;2.75;;
78406;SDS011;67692;51.074;-1.790;2023-07-31T14:29:59;6.88;;;2.00;;
78406;SDS011;67692;51.074;-1.790;2023-07-31T14:32:26;8.20;;;2.60;;
78406;SDS011;67692;51.074;-1.790;2023-07-31T14:34:52;7.57;;;2.10;;
78406;SDS011;67692;51.074;-1.790;2023-07-31T14:37:19;7.05;;;2.63;;
78406;SDS011;67692;51.074;-1.790;2023-07-31T14:39:46;7.60;;;2.08;;
78406;SDS011;67692;51.074;-1.790;2023-07-31T14:42:12;8.15;;;2.28;;